sensor_id;sensor_type;location;lat;lon;timestamp;P1;durP1;ratioP1;P2;durP2;ratioP2
51384;SDS011;37478;55.682;37.462;2023-04-25T00:01:16;17.33;;;5.72;;
51384;SDS011;37478;55.682;37.462;2023-04-25T00:03:41;12.23;;;6.50;;
51384;SDS011;37478;55.682;37.462;2023-04-25T00:06:07;16.63;;;6.35;;
51384;SDS011;37478;55.682;37.462;2023-04-25T00:08:33;10.45;;;5.60;;
51384;SDS011;37478;55.682;37.462;2023-04-25T00:10:59;9.80;;;5.82;;
51384;SDS011;37478;55.682;37.462;2023-04-25T00:13:24;13.77;;;6.35;;
51384;SDS011;37478;55.682;37.462;2023-04-25T00:15:50;13.18;;;6.03;;
51384;SDS011;37478;55.682;37.462;2023-04-25T00:18:16;9.38;;;5.82;;
51384;SDS011;37478;55.682;37.462;2023-04-25T00:20:42;11.55;;;6.60;;
51384;SDS011;37478;55.682;37.462;2023-04-25T00:23:11;11.43;;;5.80;;
51384;SDS011;37478;55.682;37.462;2023-04-25T00:25:36;17.50;;;6.25;;
51384;SDS011;37478;55.682;37.462;2023-04-25T00:28:02;11.88;;;5.85;;
51384;SDS011;37478;55.682;37.462;2023-04-25T00:30:27;13.63;;;5.82;;
51384;SDS011;37478;55.682;37.462;2023-04-25T00:32:52;8.43;;;4.60;;
51384;SDS011;37478;55.682;37.462;2023-04-25T00:35:18;11.20;;;5.85;;
51384;SDS011;37478;55.682;37.462;2023-04-25T00:37:43;12.52;;;5.00;;
51384;SDS011;37478;55.682;37.462;2023-04-25T00:40:09;7.97;;;5.03;;
51384;SDS011;37478;55.682;37.462;2023-04-25T00:42:35;11.88;;;4.80;;
51384;SDS011;37478;55.682;37.462;2023-04-25T00:45:01;8.05;;;4.88;;
51384;SDS011;37478;55.682;37.462;2023-04-25T00:47:26;9.18;;;4.40;;
51384;SDS011;37478;55.682;37.462;2023-04-25T00:49:53;9.60;;;5.85;;
51384;SDS011;37478;55.682;37.462;2023-04-25T00:52:19;9.93;;;5.63;;
51384;SDS011;37478;55.682;37.462;2023-04-25T00:54:44;9.75;;;4.55;;
51384;SDS011;37478;55.682;37.462;2023-04-25T00:57:09;11.90;;;5.10;;
51384;SDS011;37478;55.682;37.462;2023-04-25T00:59:36;17.15;;;5.20;;
51384;SDS011;37478;55.682;37.462;2023-04-25T01:02:01;6.68;;;5.22;;
51384;SDS011;37478;55.682;37.462;2023-04-25T01:04:26;8.30;;;5.10;;
51384;SDS011;37478;55.682;37.462;2023-04-25T01:06:52;9.10;;;5.50;;
51384;SDS011;37478;55.682;37.462;2023-04-25T01:09:17;11.95;;;5.80;;
51384;SDS011;37478;55.682;37.462;2023-04-25T01:11:42;13.07;;;5.13;;
51384;SDS011;37478;55.682;37.462;2023-04-25T01:14:08;10.68;;;5.40;;
51384;SDS011;37478;55.682;37.462;2023-04-25T01:16:33;12.57;;;5.22;;
51384;SDS011;37478;55.682;37.462;2023-04-25T01:18:59;15.25;;;6.20;;
51384;SDS011;37478;55.682;37.462;2023-04-25T01:21:24;12.55;;;5.72;;
51384;SDS011;37478;55.682;37.462;2023-04-25T01:23:52;9.82;;;6.15;;
51384;SDS011;37478;55.682;37.462;2023-04-25T01:26:18;10.40;;;4.82;;
51384;SDS011;37478;55.682;37.462;2023-04-25T01:28:46;12.13;;;5.95;;
51384;SDS011;37478;55.682;37.462;2023-04-25T01:31:11;10.20;;;5.43;;
51384;SDS011;37478;55.682;37.462;2023-04-25T01:33:37;12.30;;;6.00;;
51384;SDS011;37478;55.682;37.462;2023-04-25T01:36:02;10.73;;;5.10;;
51384;SDS011;37478;55.682;37.462;2023-04-25T01:38:28;9.80;;;5.10;;
51384;SDS011;37478;55.682;37.462;2023-04-25T01:40:53;11.95;;;5.30;;
51384;SDS011;37478;55.682;37.462;2023-04-25T01:43:18;8.15;;;5.28;;
51384;SDS011;37478;55.682;37.462;2023-04-25T01:45:44;9.13;;;5.15;;
51384;SDS011;37478;55.682;37.462;2023-04-25T01:48:12;11.80;;;5.50;;
51384;SDS011;37478;55.682;37.462;2023-04-25T01:50:39;11.70;;;5.32;;
51384;SDS011;37478;55.682;37.462;2023-04-25T01:53:04;10.27;;;5.63;;
51384;SDS011;37478;55.682;37.462;2023-04-25T01:55:30;13.90;;;6.18;;
51384;SDS011;37478;55.682;37.462;2023-04-25T01:57:55;10.90;;;5.57;;
51384;SDS011;37478;55.682;37.462;2023-04-25T02:00:20;10.38;;;5.97;;
51384;SDS011;37478;55.682;37.462;2023-04-25T02:02:46;9.82;;;5.57;;
51384;SDS011;37478;55.682;37.462;2023-04-25T02:05:11;12.45;;;6.18;;
51384;SDS011;37478;55.682;37.462;2023-04-25T02:07:36;11.50;;;6.05;;
51384;SDS011;37478;55.682;37.462;2023-04-25T02:10:02;16.85;;;6.82;;
51384;SDS011;37478;55.682;37.462;2023-04-25T02:12:28;8.77;;;5.78;;
51384;SDS011;37478;55.682;37.462;2023-04-25T02:14:53;11.68;;;5.43;;
51384;SDS011;37478;55.682;37.462;2023-04-25T02:17:19;8.20;;;5.47;;
51384;SDS011;37478;55.682;37.462;2023-04-25T02:19:46;10.88;;;4.93;;
51384;SDS011;37478;55.682;37.462;2023-04-25T02:22:11;16.75;;;6.28;;
51384;SDS011;37478;55.682;37.462;2023-04-25T02:24:37;8.20;;;5.15;;
51384;SDS011;37478;55.682;37.462;2023-04-25T02:27:02;10.60;;;5.75;;
51384;SDS011;37478;55.682;37.462;2023-04-25T02:29:29;13.95;;;5.57;;
51384;SDS011;37478;55.682;37.462;2023-04-25T02:31:54;15.25;;;5.47;;
51384;SDS011;37478;55.682;37.462;2023-04-25T02:34:20;15.75;;;6.82;;
51384;SDS011;37478;55.682;37.462;2023-04-25T02:36:45;19.25;;;6.65;;
51384;SDS011;37478;55.682;37.462;2023-04-25T02:39:10;13.10;;;6.78;;
51384;SDS011;37478;55.682;37.462;2023-04-25T02:41:35;10.13;;;5.68;;
51384;SDS011;37478;55.682;37.462;2023-04-25T02:44:01;17.15;;;6.95;;
51384;SDS011;37478;55.682;37.462;2023-04-25T02:46:26;10.43;;;6.25;;
51384;SDS011;37478;55.682;37.462;2023-04-25T02:48:51;13.48;;;6.22;;
51384;SDS011;37478;55.682;37.462;2023-04-25T02:51:17;14.35;;;6.15;;
51384;SDS011;37478;55.682;37.462;2023-04-25T02:53:42;11.40;;;6.80;;
51384;SDS011;37478;55.682;37.462;2023-04-25T02:56:07;15.13;;;6.32;;
51384;SDS011;37478;55.682;37.462;2023-04-25T02:58:32;13.10;;;4.13;;
51384;SDS011;37478;55.682;37.462;2023-04-25T03:00:58;10.70;;;4.53;;
51384;SDS011;37478;55.682;37.462;2023-04-25T03:03:23;8.52;;;4.38;;
51384;SDS011;37478;55.682;37.462;2023-04-25T03:05:49;8.73;;;6.53;;
51384;SDS011;37478;55.682;37.462;2023-04-25T03:08:15;10.32;;;5.90;;
51384;SDS011;37478;55.682;37.462;2023-04-25T03:10:40;10.25;;;5.20;;
51384;SDS011;37478;55.682;37.462;2023-04-25T03:13:06;10.15;;;5.53;;
51384;SDS011;37478;55.682;37.462;2023-04-25T03:15:31;14.05;;;6.30;;
51384;SDS011;37478;55.682;37.462;2023-04-25T03:17:56;10.10;;;6.05;;
51384;SDS011;37478;55.682;37.462;2023-04-25T03:20:22;10.48;;;5.97;;
51384;SDS011;37478;55.682;37.462;2023-04-25T03:22:47;13.15;;;6.25;;
51384;SDS011;37478;55.682;37.462;2023-04-25T03:25:12;10.30;;;6.30;;
51384;SDS011;37478;55.682;37.462;2023-04-25T03:27:38;10.20;;;6.40;;
51384;SDS011;37478;55.682;37.462;2023-04-25T03:30:03;21.02;;;6.70;;
51384;SDS011;37478;55.682;37.462;2023-04-25T03:32:29;15.23;;;7.43;;
51384;SDS011;37478;55.682;37.462;2023-04-25T03:34:54;10.07;;;6.55;;
51384;SDS011;37478;55.682;37.462;2023-04-25T03:37:20;18.25;;;8.18;;
51384;SDS011;37478;55.682;37.462;2023-04-25T03:39:45;15.25;;;7.60;;
51384;SDS011;37478;55.682;37.462;2023-04-25T03:42:11;12.23;;;7.95;;
51384;SDS011;37478;55.682;37.462;2023-04-25T03:44:36;13.40;;;7.38;;
51384;SDS011;37478;55.682;37.462;2023-04-25T03:47:01;19.20;;;8.13;;
51384;SDS011;37478;55.682;37.462;2023-04-25T03:49:26;16.25;;;8.48;;
51384;SDS011;37478;55.682;37.462;2023-04-25T03:51:52;16.08;;;8.82;;
51384;SDS011;37478;55.682;37.462;2023-04-25T03:54:17;15.82;;;8.55;;
51384;SDS011;37478;55.682;37.462;2023-04-25T03:56:42;16.60;;;8.93;;
51384;SDS011;37478;55.682;37.462;2023-04-25T03:59:08;12.90;;;8.77;;
51384;SDS011;37478;55.682;37.462;2023-04-25T04:01:33;15.70;;;8.48;;
51384;SDS011;37478;55.682;37.462;2023-04-25T04:03:58;23.60;;;8.45;;
51384;SDS011;37478;55.682;37.462;2023-04-25T04:06:29;14.13;;;8.65;;
51384;SDS011;37478;55.682;37.462;2023-04-25T04:08:55;18.08;;;8.77;;
51384;SDS011;37478;55.682;37.462;2023-04-25T04:11:20;17.77;;;8.25;;
51384;SDS011;37478;55.682;37.462;2023-04-25T04:13:45;17.35;;;9.07;;
51384;SDS011;37478;55.682;37.462;2023-04-25T04:16:11;12.10;;;8.07;;
51384;SDS011;37478;55.682;37.462;2023-04-25T04:18:36;20.63;;;9.15;;
51384;SDS011;37478;55.682;37.462;2023-04-25T04:21:02;15.05;;;7.80;;
51384;SDS011;37478;55.682;37.462;2023-04-25T04:23:27;14.95;;;8.13;;
51384;SDS011;37478;55.682;37.462;2023-04-25T04:25:53;16.02;;;8.85;;
51384;SDS011;37478;55.682;37.462;2023-04-25T04:28:19;15.75;;;8.30;;
51384;SDS011;37478;55.682;37.462;2023-04-25T04:30:45;13.48;;;8.15;;
51384;SDS011;37478;55.682;37.462;2023-04-25T04:33:11;13.07;;;8.52;;
51384;SDS011;37478;55.682;37.462;2023-04-25T04:35:37;16.15;;;7.50;;
51384;SDS011;37478;55.682;37.462;2023-04-25T04:38:02;16.08;;;9.05;;
51384;SDS011;37478;55.682;37.462;2023-04-25T04:40:27;16.38;;;7.95;;
51384;SDS011;37478;55.682;37.462;2023-04-25T04:42:53;21.50;;;8.85;;
51384;SDS011;37478;55.682;37.462;2023-04-25T04:45:21;22.50;;;8.52;;
51384;SDS011;37478;55.682;37.462;2023-04-25T04:47:47;14.93;;;8.57;;
51384;SDS011;37478;55.682;37.462;2023-04-25T04:50:13;18.98;;;8.98;;
51384;SDS011;37478;55.682;37.462;2023-04-25T04:52:40;20.15;;;9.65;;
51384;SDS011;37478;55.682;37.462;2023-04-25T04:55:05;16.63;;;8.98;;
51384;SDS011;37478;55.682;37.462;2023-04-25T04:57:31;13.77;;;8.43;;
51384;SDS011;37478;55.682;37.462;2023-04-25T04:59:58;15.27;;;8.98;;
51384;SDS011;37478;55.682;37.462;2023-04-25T05:02:23;15.73;;;9.30;;
51384;SDS011;37478;55.682;37.462;2023-04-25T05:04:49;20.90;;;9.43;;
51384;SDS011;37478;55.682;37.462;2023-04-25T05:07:15;21.63;;;9.57;;
51384;SDS011;37478;55.682;37.462;2023-04-25T05:09:40;17.38;;;9.90;;
51384;SDS011;37478;55.682;37.462;2023-04-25T05:12:06;22.05;;;9.45;;
51384;SDS011;37478;55.682;37.462;2023-04-25T05:14:31;12.00;;;8.18;;
51384;SDS011;37478;55.682;37.462;2023-04-25T05:16:56;14.30;;;8.63;;
51384;SDS011;37478;55.682;37.462;2023-04-25T05:19:23;14.05;;;7.93;;
51384;SDS011;37478;55.682;37.462;2023-04-25T05:21:48;26.33;;;9.50;;
51384;SDS011;37478;55.682;37.462;2023-04-25T05:24:14;11.60;;;7.85;;
51384;SDS011;37478;55.682;37.462;2023-04-25T05:26:39;14.18;;;7.97;;
51384;SDS011;37478;55.682;37.462;2023-04-25T05:29:04;13.35;;;7.22;;
51384;SDS011;37478;55.682;37.462;2023-04-25T05:31:30;11.50;;;6.82;;
51384;SDS011;37478;55.682;37.462;2023-04-25T05:33:56;15.43;;;8.63;;
51384;SDS011;37478;55.682;37.462;2023-04-25T05:36:21;14.70;;;6.90;;
51384;SDS011;37478;55.682;37.462;2023-04-25T05:38:47;17.48;;;7.50;;
51384;SDS011;37478;55.682;37.462;2023-04-25T05:41:12;11.68;;;7.45;;
51384;SDS011;37478;55.682;37.462;2023-04-25T05:43:37;17.73;;;6.90;;
51384;SDS011;37478;55.682;37.462;2023-04-25T05:46:03;17.40;;;7.10;;
51384;SDS011;37478;55.682;37.462;2023-04-25T05:48:28;12.55;;;6.78;;
51384;SDS011;37478;55.682;37.462;2023-04-25T05:50:53;16.70;;;7.00;;
51384;SDS011;37478;55.682;37.462;2023-04-25T05:53:19;9.50;;;5.90;;
51384;SDS011;37478;55.682;37.462;2023-04-25T05:55:44;14.32;;;5.75;;
51384;SDS011;37478;55.682;37.462;2023-04-25T05:58:10;14.60;;;6.32;;
51384;SDS011;37478;55.682;37.462;2023-04-25T06:00:35;11.43;;;5.82;;
51384;SDS011;37478;55.682;37.462;2023-04-25T06:03:00;15.60;;;6.07;;
51384;SDS011;37478;55.682;37.462;2023-04-25T06:05:26;13.07;;;5.88;;
51384;SDS011;37478;55.682;37.462;2023-04-25T06:07:51;11.30;;;6.47;;
51384;SDS011;37478;55.682;37.462;2023-04-25T06:10:16;9.30;;;6.00;;
51384;SDS011;37478;55.682;37.462;2023-04-25T06:12:42;12.73;;;5.95;;
51384;SDS011;37478;55.682;37.462;2023-04-25T06:15:07;9.75;;;5.15;;
51384;SDS011;37478;55.682;37.462;2023-04-25T06:17:33;10.65;;;5.53;;
51384;SDS011;37478;55.682;37.462;2023-04-25T06:19:58;13.27;;;5.93;;
51384;SDS011;37478;55.682;37.462;2023-04-25T06:22:23;11.02;;;5.90;;
51384;SDS011;37478;55.682;37.462;2023-04-25T06:24:48;15.07;;;5.65;;
51384;SDS011;37478;55.682;37.462;2023-04-25T06:27:14;15.95;;;6.32;;
51384;SDS011;37478;55.682;37.462;2023-04-25T06:29:39;11.38;;;6.07;;
51384;SDS011;37478;55.682;37.462;2023-04-25T06:32:04;9.05;;;5.50;;
51384;SDS011;37478;55.682;37.462;2023-04-25T06:34:30;12.57;;;5.82;;
51384;SDS011;37478;55.682;37.462;2023-04-25T06:36:55;11.82;;;4.65;;
51384;SDS011;37478;55.682;37.462;2023-04-25T06:39:20;12.15;;;4.57;;
51384;SDS011;37478;55.682;37.462;2023-04-25T06:41:48;7.88;;;4.70;;
51384;SDS011;37478;55.682;37.462;2023-04-25T06:44:13;9.18;;;4.60;;
51384;SDS011;37478;55.682;37.462;2023-04-25T06:46:38;12.27;;;5.80;;
51384;SDS011;37478;55.682;37.462;2023-04-25T06:49:04;7.57;;;4.72;;
51384;SDS011;37478;55.682;37.462;2023-04-25T06:51:29;7.25;;;4.90;;
51384;SDS011;37478;55.682;37.462;2023-04-25T06:53:55;7.70;;;4.85;;
51384;SDS011;37478;55.682;37.462;2023-04-25T06:56:21;7.90;;;4.28;;
51384;SDS011;37478;55.682;37.462;2023-04-25T06:58:48;9.27;;;5.35;;
51384;SDS011;37478;55.682;37.462;2023-04-25T07:01:13;9.65;;;5.30;;
51384;SDS011;37478;55.682;37.462;2023-04-25T07:03:39;8.38;;;4.93;;
51384;SDS011;37478;55.682;37.462;2023-04-25T07:06:04;18.33;;;5.78;;
51384;SDS011;37478;55.682;37.462;2023-04-25T07:08:30;13.77;;;5.22;;
51384;SDS011;37478;55.682;37.462;2023-04-25T07:10:55;9.48;;;5.20;;
51384;SDS011;37478;55.682;37.462;2023-04-25T07:13:20;8.20;;;5.25;;
51384;SDS011;37478;55.682;37.462;2023-04-25T07:15:46;10.88;;;4.60;;
51384;SDS011;37478;55.682;37.462;2023-04-25T07:18:13;8.20;;;4.65;;
51384;SDS011;37478;55.682;37.462;2023-04-25T07:20:38;10.00;;;5.10;;
51384;SDS011;37478;55.682;37.462;2023-04-25T07:23:03;8.18;;;5.05;;
51384;SDS011;37478;55.682;37.462;2023-04-25T07:25:29;12.23;;;4.93;;
51384;SDS011;37478;55.682;37.462;2023-04-25T07:27:55;14.38;;;4.80;;
51384;SDS011;37478;55.682;37.462;2023-04-25T07:30:20;8.82;;;4.65;;
51384;SDS011;37478;55.682;37.462;2023-04-25T07:32:46;10.20;;;5.03;;
51384;SDS011;37478;55.682;37.462;2023-04-25T07:35:11;8.77;;;5.38;;
51384;SDS011;37478;55.682;37.462;2023-04-25T07:37:36;12.13;;;5.45;;
51384;SDS011;37478;55.682;37.462;2023-04-25T07:40:02;11.35;;;4.95;;
51384;SDS011;37478;55.682;37.462;2023-04-25T07:42:28;7.53;;;4.75;;
51384;SDS011;37478;55.682;37.462;2023-04-25T07:44:54;13.85;;;5.38;;
51384;SDS011;37478;55.682;37.462;2023-04-25T07:47:19;7.72;;;4.45;;
51384;SDS011;37478;55.682;37.462;2023-04-25T07:49:45;11.00;;;5.15;;
51384;SDS011;37478;55.682;37.462;2023-04-25T07:52:11;8.90;;;5.05;;
51384;SDS011;37478;55.682;37.462;2023-04-25T07:54:36;15.40;;;5.95;;
51384;SDS011;37478;55.682;37.462;2023-04-25T07:57:01;12.63;;;5.68;;
51384;SDS011;37478;55.682;37.462;2023-04-25T07:59:27;14.15;;;6.88;;
51384;SDS011;37478;55.682;37.462;2023-04-25T08:01:52;12.65;;;5.55;;
51384;SDS011;37478;55.682;37.462;2023-04-25T08:04:18;15.07;;;6.40;;
51384;SDS011;37478;55.682;37.462;2023-04-25T08:06:43;12.75;;;6.70;;
51384;SDS011;37478;55.682;37.462;2023-04-25T08:09:09;22.85;;;8.88;;
51384;SDS011;37478;55.682;37.462;2023-04-25T08:11:35;14.25;;;6.55;;
51384;SDS011;37478;55.682;37.462;2023-04-25T08:14:00;14.40;;;6.32;;
51384;SDS011;37478;55.682;37.462;2023-04-25T08:16:26;11.13;;;6.05;;
51384;SDS011;37478;55.682;37.462;2023-04-25T08:18:52;7.90;;;4.68;;
51384;SDS011;37478;55.682;37.462;2023-04-25T08:21:17;7.82;;;4.45;;
51384;SDS011;37478;55.682;37.462;2023-04-25T08:23:42;12.80;;;5.75;;
51384;SDS011;37478;55.682;37.462;2023-04-25T08:26:07;8.40;;;5.18;;
51384;SDS011;37478;55.682;37.462;2023-04-25T08:28:33;17.38;;;8.18;;
51384;SDS011;37478;55.682;37.462;2023-04-25T08:30:58;6.40;;;4.40;;
51384;SDS011;37478;55.682;37.462;2023-04-25T08:33:23;8.32;;;4.05;;
51384;SDS011;37478;55.682;37.462;2023-04-25T08:35:49;9.90;;;4.68;;
51384;SDS011;37478;55.682;37.462;2023-04-25T08:38:14;12.48;;;5.10;;
51384;SDS011;37478;55.682;37.462;2023-04-25T08:40:40;9.18;;;4.90;;
51384;SDS011;37478;55.682;37.462;2023-04-25T08:43:06;6.35;;;4.72;;
51384;SDS011;37478;55.682;37.462;2023-04-25T08:45:36;11.18;;;5.03;;
51384;SDS011;37478;55.682;37.462;2023-04-25T08:48:03;7.50;;;4.95;;
51384;SDS011;37478;55.682;37.462;2023-04-25T08:50:29;10.48;;;5.70;;
51384;SDS011;37478;55.682;37.462;2023-04-25T08:52:55;8.77;;;4.47;;
51384;SDS011;37478;55.682;37.462;2023-04-25T08:55:22;11.68;;;5.03;;
51384;SDS011;37478;55.682;37.462;2023-04-25T08:57:48;18.75;;;5.32;;
51384;SDS011;37478;55.682;37.462;2023-04-25T09:00:14;10.18;;;4.82;;
51384;SDS011;37478;55.682;37.462;2023-04-25T09:02:40;14.45;;;4.85;;
51384;SDS011;37478;55.682;37.462;2023-04-25T09:05:07;10.80;;;4.43;;
51384;SDS011;37478;55.682;37.462;2023-04-25T09:07:34;8.48;;;4.22;;
51384;SDS011;37478;55.682;37.462;2023-04-25T09:10:00;8.50;;;4.85;;
51384;SDS011;37478;55.682;37.462;2023-04-25T09:12:27;10.63;;;4.68;;
51384;SDS011;37478;55.682;37.462;2023-04-25T09:15:06;7.53;;;4.13;;
51384;SDS011;37478;55.682;37.462;2023-04-25T09:17:32;9.00;;;4.85;;
51384;SDS011;37478;55.682;37.462;2023-04-25T09:20:07;10.52;;;4.43;;
51384;SDS011;37478;55.682;37.462;2023-04-25T09:22:33;13.38;;;5.63;;
51384;SDS011;37478;55.682;37.462;2023-04-25T09:24:59;11.63;;;4.95;;
51384;SDS011;37478;55.682;37.462;2023-04-25T09:27:27;8.65;;;4.20;;
51384;SDS011;37478;55.682;37.462;2023-04-25T09:29:57;7.47;;;4.93;;
51384;SDS011;37478;55.682;37.462;2023-04-25T09:32:24;13.77;;;5.57;;
51384;SDS011;37478;55.682;37.462;2023-04-25T09:34:54;10.02;;;4.53;;
51384;SDS011;37478;55.682;37.462;2023-04-25T09:37:20;5.32;;;4.03;;
51384;SDS011;37478;55.682;37.462;2023-04-25T09:39:46;9.95;;;4.25;;
51384;SDS011;37478;55.682;37.462;2023-04-25T09:42:13;7.65;;;3.97;;
51384;SDS011;37478;55.682;37.462;2023-04-25T09:44:41;8.32;;;3.85;;
51384;SDS011;37478;55.682;37.462;2023-04-25T09:47:09;6.47;;;4.97;;
51384;SDS011;37478;55.682;37.462;2023-04-25T09:49:34;5.78;;;4.35;;
51384;SDS011;37478;55.682;37.462;2023-04-25T09:52:03;8.15;;;4.22;;
51384;SDS011;37478;55.682;37.462;2023-04-25T09:54:28;7.68;;;4.03;;
51384;SDS011;37478;55.682;37.462;2023-04-25T09:56:54;9.48;;;4.03;;
51384;SDS011;37478;55.682;37.462;2023-04-25T09:59:20;11.27;;;4.13;;
51384;SDS011;37478;55.682;37.462;2023-04-25T10:01:45;7.93;;;4.03;;
51384;SDS011;37478;55.682;37.462;2023-04-25T10:04:11;11.75;;;3.97;;
51384;SDS011;37478;55.682;37.462;2023-04-25T10:06:37;7.13;;;3.85;;
51384;SDS011;37478;55.682;37.462;2023-04-25T10:09:03;7.50;;;3.20;;
51384;SDS011;37478;55.682;37.462;2023-04-25T10:11:28;7.80;;;4.55;;
51384;SDS011;37478;55.682;37.462;2023-04-25T10:13:55;4.88;;;3.10;;
51384;SDS011;37478;55.682;37.462;2023-04-25T10:16:21;6.72;;;3.30;;
51384;SDS011;37478;55.682;37.462;2023-04-25T10:18:46;5.88;;;3.60;;
51384;SDS011;37478;55.682;37.462;2023-04-25T10:21:11;6.65;;;4.05;;
51384;SDS011;37478;55.682;37.462;2023-04-25T10:23:37;7.20;;;3.75;;
51384;SDS011;37478;55.682;37.462;2023-04-25T10:26:03;7.85;;;4.22;;
51384;SDS011;37478;55.682;37.462;2023-04-25T10:28:29;6.85;;;3.92;;
51384;SDS011;37478;55.682;37.462;2023-04-25T10:33:29;17.65;;;4.10;;
51384;SDS011;37478;55.682;37.462;2023-04-25T10:35:54;8.93;;;4.35;;
51384;SDS011;37478;55.682;37.462;2023-04-25T10:38:22;11.60;;;4.30;;
51384;SDS011;37478;55.682;37.462;2023-04-25T10:41:09;9.90;;;4.40;;
51384;SDS011;37478;55.682;37.462;2023-04-25T10:43:37;6.88;;;4.32;;
51384;SDS011;37478;55.682;37.462;2023-04-25T10:48:48;5.55;;;4.00;;
51384;SDS011;37478;55.682;37.462;2023-04-25T10:51:36;8.88;;;4.47;;
51384;SDS011;37478;55.682;37.462;2023-04-25T10:56:26;8.93;;;3.97;;
51384;SDS011;37478;55.682;37.462;2023-04-25T10:58:51;8.55;;;4.85;;
51384;SDS011;37478;55.682;37.462;2023-04-25T11:01:20;8.27;;;3.28;;
51384;SDS011;37478;55.682;37.462;2023-04-25T11:03:45;7.28;;;3.88;;
51384;SDS011;37478;55.682;37.462;2023-04-25T11:06:15;5.55;;;3.53;;
51384;SDS011;37478;55.682;37.462;2023-04-25T11:08:47;9.77;;;3.40;;
51384;SDS011;37478;55.682;37.462;2023-04-25T11:11:13;9.27;;;4.82;;
51384;SDS011;37478;55.682;37.462;2023-04-25T11:13:39;9.55;;;3.85;;
51384;SDS011;37478;55.682;37.462;2023-04-25T11:16:06;4.95;;;3.40;;
51384;SDS011;37478;55.682;37.462;2023-04-25T11:18:32;7.88;;;5.05;;
51384;SDS011;37478;55.682;37.462;2023-04-25T11:20:59;4.60;;;3.30;;
51384;SDS011;37478;55.682;37.462;2023-04-25T11:23:24;6.30;;;3.33;;
51384;SDS011;37478;55.682;37.462;2023-04-25T11:25:51;7.20;;;2.95;;
51384;SDS011;37478;55.682;37.462;2023-04-25T11:28:20;5.63;;;3.65;;
51384;SDS011;37478;55.682;37.462;2023-04-25T11:30:49;6.00;;;3.60;;
51384;SDS011;37478;55.682;37.462;2023-04-25T11:33:15;7.03;;;3.33;;
51384;SDS011;37478;55.682;37.462;2023-04-25T11:35:41;6.10;;;3.40;;
51384;SDS011;37478;55.682;37.462;2023-04-25T11:38:06;5.45;;;3.60;;
51384;SDS011;37478;55.682;37.462;2023-04-25T11:40:32;7.70;;;3.42;;
51384;SDS011;37478;55.682;37.462;2023-04-25T11:42:59;7.15;;;3.33;;
51384;SDS011;37478;55.682;37.462;2023-04-25T11:45:24;6.25;;;3.40;;
51384;SDS011;37478;55.682;37.462;2023-04-25T11:47:50;12.07;;;3.60;;
51384;SDS011;37478;55.682;37.462;2023-04-25T11:50:15;8.80;;;3.17;;
51384;SDS011;37478;55.682;37.462;2023-04-25T11:52:42;5.28;;;3.05;;
51384;SDS011;37478;55.682;37.462;2023-04-25T11:55:08;4.88;;;3.15;;
51384;SDS011;37478;55.682;37.462;2023-04-25T11:57:33;7.38;;;3.30;;
51384;SDS011;37478;55.682;37.462;2023-04-25T12:00:08;6.60;;;3.45;;
51384;SDS011;37478;55.682;37.462;2023-04-25T12:02:36;5.82;;;2.90;;
51384;SDS011;37478;55.682;37.462;2023-04-25T12:05:01;5.15;;;2.92;;
51384;SDS011;37478;55.682;37.462;2023-04-25T12:07:31;4.47;;;2.72;;
51384;SDS011;37478;55.682;37.462;2023-04-25T12:09:56;4.32;;;2.47;;
51384;SDS011;37478;55.682;37.462;2023-04-25T12:12:22;6.43;;;2.85;;
51384;SDS011;37478;55.682;37.462;2023-04-25T12:14:51;4.60;;;3.05;;
51384;SDS011;37478;55.682;37.462;2023-04-25T12:17:17;9.02;;;3.22;;
51384;SDS011;37478;55.682;37.462;2023-04-25T12:19:42;6.97;;;2.65;;
51384;SDS011;37478;55.682;37.462;2023-04-25T12:22:22;6.18;;;3.00;;
51384;SDS011;37478;55.682;37.462;2023-04-25T12:24:48;6.38;;;2.95;;
51384;SDS011;37478;55.682;37.462;2023-04-25T12:27:15;6.70;;;3.17;;
51384;SDS011;37478;55.682;37.462;2023-04-25T12:29:49;6.72;;;3.15;;
51384;SDS011;37478;55.682;37.462;2023-04-25T12:32:15;4.45;;;3.00;;
51384;SDS011;37478;55.682;37.462;2023-04-25T12:34:40;4.90;;;3.08;;
51384;SDS011;37478;55.682;37.462;2023-04-25T12:37:05;3.70;;;2.60;;
51384;SDS011;37478;55.682;37.462;2023-04-25T12:39:31;5.82;;;2.97;;
51384;SDS011;37478;55.682;37.462;2023-04-25T12:41:56;5.82;;;3.05;;
51384;SDS011;37478;55.682;37.462;2023-04-25T12:44:21;17.50;;;8.63;;
51384;SDS011;37478;55.682;37.462;2023-04-25T12:46:47;10.43;;;3.67;;
51384;SDS011;37478;55.682;37.462;2023-04-25T12:49:12;6.30;;;3.20;;
51384;SDS011;37478;55.682;37.462;2023-04-25T12:51:38;5.38;;;3.25;;
51384;SDS011;37478;55.682;37.462;2023-04-25T12:54:04;4.05;;;3.20;;
51384;SDS011;37478;55.682;37.462;2023-04-25T12:56:30;5.95;;;3.00;;
51384;SDS011;37478;55.682;37.462;2023-04-25T12:58:56;7.57;;;3.40;;
51384;SDS011;37478;55.682;37.462;2023-04-25T13:01:21;7.28;;;3.20;;
51384;SDS011;37478;55.682;37.462;2023-04-25T13:03:47;5.43;;;2.97;;
51384;SDS011;37478;55.682;37.462;2023-04-25T13:06:13;5.10;;;3.10;;
51384;SDS011;37478;55.682;37.462;2023-04-25T13:08:38;5.82;;;3.53;;
51384;SDS011;37478;55.682;37.462;2023-04-25T13:11:04;8.00;;;3.20;;
51384;SDS011;37478;55.682;37.462;2023-04-25T13:13:30;4.60;;;3.20;;
51384;SDS011;37478;55.682;37.462;2023-04-25T13:15:56;6.45;;;2.95;;
51384;SDS011;37478;55.682;37.462;2023-04-25T13:18:22;7.68;;;3.38;;
51384;SDS011;37478;55.682;37.462;2023-04-25T13:20:51;6.07;;;3.35;;
51384;SDS011;37478;55.682;37.462;2023-04-25T13:23:16;5.32;;;3.72;;
51384;SDS011;37478;55.682;37.462;2023-04-25T13:25:41;5.50;;;2.92;;
51384;SDS011;37478;55.682;37.462;2023-04-25T13:28:07;8.55;;;3.40;;
51384;SDS011;37478;55.682;37.462;2023-04-25T13:30:32;5.40;;;3.30;;
51384;SDS011;37478;55.682;37.462;2023-04-25T13:32:57;7.63;;;3.15;;
51384;SDS011;37478;55.682;37.462;2023-04-25T13:35:28;6.28;;;3.20;;
51384;SDS011;37478;55.682;37.462;2023-04-25T13:37:53;6.40;;;2.78;;
51384;SDS011;37478;55.682;37.462;2023-04-25T13:40:19;12.40;;;3.55;;
51384;SDS011;37478;55.682;37.462;2023-04-25T13:42:44;7.00;;;3.67;;
51384;SDS011;37478;55.682;37.462;2023-04-25T13:45:10;6.82;;;3.35;;
51384;SDS011;37478;55.682;37.462;2023-04-25T13:47:36;6.97;;;3.70;;
51384;SDS011;37478;55.682;37.462;2023-04-25T13:50:01;9.38;;;3.55;;
51384;SDS011;37478;55.682;37.462;2023-04-25T13:52:28;9.43;;;4.28;;
51384;SDS011;37478;55.682;37.462;2023-04-25T13:54:53;7.70;;;3.67;;
51384;SDS011;37478;55.682;37.462;2023-04-25T13:57:19;6.70;;;4.03;;
51384;SDS011;37478;55.682;37.462;2023-04-25T13:59:44;8.07;;;3.67;;
51384;SDS011;37478;55.682;37.462;2023-04-25T14:02:10;9.10;;;3.80;;
51384;SDS011;37478;55.682;37.462;2023-04-25T14:04:35;7.75;;;3.75;;
51384;SDS011;37478;55.682;37.462;2023-04-25T14:07:02;7.80;;;4.20;;
51384;SDS011;37478;55.682;37.462;2023-04-25T14:09:27;5.25;;;3.28;;
51384;SDS011;37478;55.682;37.462;2023-04-25T14:11:53;6.97;;;3.80;;
51384;SDS011;37478;55.682;37.462;2023-04-25T14:14:18;4.90;;;3.45;;
51384;SDS011;37478;55.682;37.462;2023-04-25T14:16:44;5.95;;;3.38;;
51384;SDS011;37478;55.682;37.462;2023-04-25T14:19:09;8.43;;;3.92;;
51384;SDS011;37478;55.682;37.462;2023-04-25T14:21:35;4.82;;;3.70;;
51384;SDS011;37478;55.682;37.462;2023-04-25T14:24:00;5.40;;;3.58;;
51384;SDS011;37478;55.682;37.462;2023-04-25T14:26:25;10.30;;;4.20;;
51384;SDS011;37478;55.682;37.462;2023-04-25T14:28:51;5.88;;;3.55;;